Milingimbi, Australia
Current Conditions -  °F | °C
As of 7:11 PM on Tuesday 27 Jan 2015 (Local Time) from YPGV Reporting Station
Thunderstorm Thunderstorm  
Wind Chill: 79°   Ceiling: Unl
Heat Index: 83°   Visibility: 2.1mi
Dew Point: 77°   Wind: 14mph
Humidity: 94%   Direction: 10°N
Pressure: 29.68"   Gusts: NA
Location:  12.09°S, 134.89°E
Report Text: YPGV 271011Z 01012KT 3500 TSRA FEW009 SCT013CB 26/25 Q1005
Loading
Personal Weather Stations






























Interactive Weather Map New forecast layout! Learn more

10-Day Weather Forecast

Advertisements
Track Severe Weather on mobile